Time;durP1;ratioP1;P1;durP2;ratioP2;P2;SDS_P1;SDS_P2;PMS_P1;PMS_P2;Temp;Humidity;BMP_temperature;BMP_pressure;BME280_temperature;BME280_humidity;BME280_pressure;Samples;Min_cycle;Max_cycle;Signal;HPM_P1;HPM_P2
2021/09/08 00:01:56;;;;;;;17.77;12.27;;;;;;;15.50;87.99;101608.84;5017282;28;20038;-86
2021/09/08 00:04:21;;;;;;;16.90;12.35;;;;;;;15.41;88.55;101604.50;5001426;28;20451;-87
2021/09/08 00:06:46;;;;;;;19.95;12.85;;;;;;;15.41;88.60;101596.41;4999772;28;20327;-86
2021/09/08 00:09:12;;;;;;;19.60;13.02;;;;;;;15.38;88.40;101601.31;5004367;28;20045;-86
2021/09/08 00:11:37;;;;;;;18.60;12.38;;;;;;;15.34;88.75;101592.72;5001207;28;20416;-86
2021/09/08 00:14:04;;;;;;;18.00;13.20;;;;;;;15.33;88.94;101591.03;5004181;28;20141;-86
2021/09/08 00:16:29;;;;;;;18.13;12.93;;;;;;;15.29;88.84;101590.53;4998965;28;20060;-86
2021/09/08 00:18:55;;;;;;;18.10;13.38;;;;;;;15.26;89.10;101590.91;5004423;28;20050;-86
2021/09/08 00:21:20;;;;;;;19.45;12.90;;;;;;;15.28;89.15;101593.44;4993459;28;20044;-86
2021/09/08 00:23:45;;;;;;;20.98;13.63;;;;;;;15.27;88.83;101586.31;4971095;28;20107;-86
2021/09/08 00:26:11;;;;;;;18.10;12.90;;;;;;;15.28;88.91;101593.44;4999853;28;20048;-86
2021/09/08 00:28:36;;;;;;;19.77;13.48;;;;;;;15.23;88.82;101587.72;4983727;28;20029;-86
2021/09/08 00:31:02;;;;;;;19.38;13.73;;;;;;;15.24;88.91;101592.09;4984272;28;20151;-86
2021/09/08 00:33:27;;;;;;;20.23;13.93;;;;;;;15.25;89.03;101593.78;5000237;28;20048;-86
2021/09/08 00:35:53;;;;;;;19.77;13.68;;;;;;;15.21;88.68;101595.97;5004912;28;20400;-86
2021/09/08 00:38:19;;;;;;;19.45;13.30;;;;;;;15.19;88.84;101589.94;5003363;28;20519;-86
2021/09/08 00:40:44;;;;;;;20.25;14.18;;;;;;;15.15;88.97;101583.16;4997411;28;20046;-87
2021/09/08 00:43:09;;;;;;;19.05;13.93;;;;;;;15.16;89.06;101581.28;5001377;28;20072;-86
2021/09/08 00:45:35;;;;;;;19.70;13.63;;;;;;;15.11;89.14;101585.38;5002702;28;20050;-86
2021/09/08 00:48:00;;;;;;;20.40;13.75;;;;;;;15.10;89.17;101577.44;5003268;28;20417;-86
2021/09/08 00:50:26;;;;;;;21.77;14.25;;;;;;;15.05;89.57;101583.38;4997924;28;20035;-86
2021/09/08 00:52:52;;;;;;;20.25;14.60;;;;;;;15.03;89.70;101585.41;4984337;28;20531;-87
2021/09/08 00:55:20;;;;;;;20.88;14.43;;;;;;;15.00;89.76;101584.91;5001313;28;20408;-87
2021/09/08 00:57:46;;;;;;;20.15;15.00;;;;;;;14.96;90.11;101588.97;5001329;28;20046;-86
2021/09/08 01:00:12;;;;;;;20.25;14.35;;;;;;;14.92;90.18;101583.06;5001517;28;20578;-86
2021/09/08 01:02:40;;;;;;;22.27;15.25;;;;;;;14.89;90.29;101578.84;4981925;28;20042;-86
2021/09/08 01:05:06;;;;;;;22.97;15.43;;;;;;;14.88;90.16;101584.44;5000087;28;20057;-86
2021/09/08 01:07:32;;;;;;;20.52;14.55;;;;;;;14.85;90.49;101579.41;5000522;28;20045;-86
2021/09/08 01:09:57;;;;;;;18.02;14.20;;;;;;;14.82;90.44;101577.03;4988458;28;20555;-86
2021/09/08 01:12:23;;;;;;;21.58;14.80;;;;;;;14.80;90.57;101579.06;4993505;28;20046;-86
2021/09/08 01:14:48;;;;;;;21.08;15.15;;;;;;;14.80;90.53;101573.66;5017759;28;20049;-86
2021/09/08 01:17:17;;;;;;;20.60;14.27;;;;;;;14.78;90.65;101573.81;5006094;28;20124;-86
2021/09/08 01:19:43;;;;;;;22.63;14.45;;;;;;;14.77;90.82;101568.59;5007141;28;20042;-86
2021/09/08 01:22:08;;;;;;;20.08;15.45;;;;;;;14.77;90.67;101569.44;4990445;28;20060;-86
2021/09/08 01:24:33;;;;;;;24.52;15.48;;;;;;;14.74;90.67;101566.25;5021847;28;21552;-86
2021/09/08 01:26:59;;;;;;;21.58;15.52;;;;;;;14.73;90.87;101567.25;5008148;28;20408;-86
2021/09/08 01:29:25;;;;;;;21.98;15.02;;;;;;;14.73;90.68;101567.25;4986350;28;20363;-87
2021/09/08 01:31:52;;;;;;;22.08;15.25;;;;;;;14.67;90.80;101563.38;5001336;28;20272;-86
2021/09/08 01:34:18;;;;;;;23.90;15.60;;;;;;;14.66;90.93;101562.53;4979511;28;20054;-86
2021/09/08 01:36:43;;;;;;;23.42;16.35;;;;;;;14.65;91.33;101566.25;4988512;28;20046;-86
2021/09/08 01:39:09;;;;;;;21.55;14.38;;;;;;;14.61;91.17;101564.91;5023262;28;20046;-86
2021/09/08 01:41:35;;;;;;;23.15;15.63;;;;;;;14.59;91.17;101564.25;5004809;28;20492;-87
2021/09/08 01:44:01;;;;;;;20.95;15.73;;;;;;;14.61;91.35;101564.06;5007367;28;20053;-86
2021/09/08 01:46:26;;;;;;;25.10;15.77;;;;;;;14.58;91.45;101559.84;5005566;28;20037;-86
2021/09/08 01:48:52;;;;;;;22.15;15.90;;;;;;;14.58;91.30;101559.00;5008203;28;20488;-86
2021/09/08 01:51:17;;;;;;;22.63;17.13;;;;;;;14.56;91.52;101556.50;5007002;28;20042;-86
2021/09/08 01:53:43;;;;;;;20.05;15.95;;;;;;;14.51;91.64;101556.13;4999574;28;20046;-86
2021/09/08 01:56:09;;;;;;;21.70;16.20;;;;;;;14.53;91.68;101555.97;5015111;28;20035;-86
2021/09/08 01:58:34;;;;;;;22.02;16.15;;;;;;;14.54;91.18;101553.13;5002434;28;20465;-86
2021/09/08 02:01:00;;;;;;;25.00;16.17;;;;;;;14.50;91.57;101545.47;5018590;28;20090;-87
2021/09/08 02:03:25;;;;;;;23.92;16.10;;;;;;;14.48;91.74;101548.38;5004086;28;20378;-87
2021/09/08 02:05:51;;;;;;;23.17;16.00;;;;;;;14.48;91.68;101548.38;5003401;28;20056;-86
2021/09/08 02:08:16;;;;;;;22.65;15.98;;;;;;;14.43;92.11;101546.19;4987299;28;20117;-87
2021/09/08 02:10:42;;;;;;;20.55;15.77;;;;;;;14.43;92.08;101545.34;4988398;28;20046;-87
2021/09/08 02:13:07;;;;;;;23.25;16.02;;;;;;;14.39;92.22;101538.59;5021853;28;20057;-87
2021/09/08 02:15:33;;;;;;;19.90;15.68;;;;;;;14.38;92.08;101545.00;4995245;28;20054;-86
2021/09/08 02:17:59;;;;;;;22.92;15.35;;;;;;;14.36;92.15;101549.75;5006626;28;20048;-87
2021/09/08 02:20:24;;;;;;;23.00;16.67;;;;;;;14.34;92.37;101551.78;5004121;28;20389;-86
2021/09/08 02:22:50;;;;;;;23.05;15.27;;;;;;;14.35;92.21;101553.44;4988197;28;20129;-87
2021/09/08 02:25:15;;;;;;;24.58;17.02;;;;;;;14.33;91.85;101540.13;5003604;28;20041;-87
2021/09/08 02:27:41;;;;;;;27.65;17.00;;;;;;;14.30;92.27;101545.88;5002350;28;20034;-87
2021/09/08 02:30:07;;;;;;;21.80;15.98;;;;;;;14.25;92.61;101545.53;5006448;28;20524;-87
2021/09/08 02:32:33;;;;;;;24.55;16.30;;;;;;;14.21;92.72;101539.66;5007598;28;20058;-86
2021/09/08 02:34:58;;;;;;;23.67;16.95;;;;;;;14.19;92.93;101536.25;4997757;28;20177;-87
2021/09/08 02:37:24;;;;;;;24.83;16.80;;;;;;;14.14;93.35;101538.63;4997936;28;20099;-87
2021/09/08 02:39:50;;;;;;;21.90;16.77;;;;;;;14.13;93.47;101539.66;5003153;28;20490;-87
2021/09/08 02:42:16;;;;;;;24.27;16.63;;;;;;;14.11;93.53;101538.13;5021044;28;20046;-86
2021/09/08 02:44:42;;;;;;;22.50;16.88;;;;;;;14.09;93.35;101540.13;5004031;28;20053;-87
2021/09/08 02:47:07;;;;;;;25.88;18.00;;;;;;;14.08;93.34;101533.06;5004279;28;20037;-86
2021/09/08 02:49:33;;;;;;;22.42;17.20;;;;;;;14.07;93.66;101529.53;5004074;28;20263;-87
2021/09/08 02:51:58;;;;;;;23.88;16.70;;;;;;;14.07;93.75;101536.75;5004194;28;20046;-87
2021/09/08 02:54:23;;;;;;;25.42;18.33;;;;;;;14.02;93.89;101531.88;4995350;28;20042;-87
2021/09/08 02:56:49;;;;;;;23.50;16.55;;;;;;;14.04;93.46;101521.78;5004399;28;20038;-87
2021/09/08 02:59:14;;;;;;;24.17;17.85;;;;;;;14.02;93.54;101529.19;5006116;28;20125;-86
2021/09/08 03:01:39;;;;;;;23.08;16.45;;;;;;;14.00;93.45;101523.09;5005050;28;20251;-87
2021/09/08 03:04:05;;;;;;;25.95;17.75;;;;;;;13.98;93.52;101526.00;5005725;28;20491;-87
2021/09/08 03:06:30;;;;;;;25.13;17.55;;;;;;;13.96;92.83;101519.06;5003116;28;20034;-86
2021/09/08 03:08:57;;;;;;;27.92;18.23;;;;;;;13.94;93.42;101521.09;5004488;28;20049;-87
2021/09/08 03:11:23;;;;;;;29.27;18.55;;;;;;;13.93;93.72;101522.09;4986072;28;20566;-86
2021/09/08 03:13:48;;;;;;;24.98;18.25;;;;;;;13.93;93.85;101519.41;4986624;28;20066;-87
2021/09/08 03:16:15;;;;;;;26.58;17.90;;;;;;;13.91;93.69;101513.34;5009451;28;20264;-87
2021/09/08 03:18:40;;;;;;;26.42;17.98;;;;;;;13.82;94.29;101508.94;5007782;28;20136;-87
2021/09/08 03:21:05;;;;;;;27.83;18.73;;;;;;;13.82;94.39;101511.66;4989630;28;20574;-87
2021/09/08 03:23:33;;;;;;;30.52;19.40;;;;;;;13.77;94.62;101504.88;5018608;28;20038;-87
2021/09/08 03:25:58;;;;;;;25.98;19.25;;;;;;;13.74;95.03;101516.00;5019164;28;20041;-86
2021/09/08 03:28:24;;;;;;;24.92;19.05;;;;;;;13.74;95.15;101512.47;5000922;28;20400;-87
2021/09/08 03:30:49;;;;;;;28.95;19.92;;;;;;;13.70;95.54;101511.97;4999308;28;20096;-87
2021/09/08 03:33:14;;;;;;;28.45;19.65;;;;;;;13.73;95.39;101508.94;4999188;28;20041;-87
2021/09/08 03:35:40;;;;;;;28.70;19.65;;;;;;;13.74;94.89;101504.38;4997911;28;20048;-86
2021/09/08 03:38:05;;;;;;;26.23;19.73;;;;;;;13.77;94.75;101509.44;4997368;28;20494;-86
2021/09/08 03:40:31;;;;;;;29.08;20.15;;;;;;;13.71;95.23;101505.56;4988667;28;20147;-87
2021/09/08 03:42:56;;;;;;;27.08;18.50;;;;;;;13.74;94.52;101507.09;4997994;28;20783;-87
2021/09/08 03:45:22;;;;;;;26.90;18.55;;;;;;;13.69;94.25;101498.63;4997760;28;20129;-87
2021/09/08 03:47:47;;;;;;;25.98;19.50;;;;;;;13.71;94.59;101507.41;4981526;28;20173;-86
2021/09/08 03:50:12;;;;;;;26.42;18.63;;;;;;;13.67;94.75;101498.81;4995804;28;20125;-87
2021/09/08 03:52:38;;;;;;;28.48;19.08;;;;;;;13.63;94.75;101494.75;4997744;28;20717;-87
2021/09/08 03:55:05;;;;;;;26.38;19.10;;;;;;;13.63;95.11;101494.75;5004208;28;20034;-87
2021/09/08 03:57:30;;;;;;;30.10;18.50;;;;;;;13.62;95.25;101489.53;4986132;28;20042;-87
2021/09/08 03:59:56;;;;;;;30.65;20.27;;;;;;;13.62;95.26;101486.84;5003199;28;20052;-87
2021/09/08 04:02:21;;;;;;;29.50;19.98;;;;;;;13.60;95.49;101480.78;4978648;28;20057;-86
2021/09/08 04:04:46;;;;;;;29.35;20.00;;;;;;;13.58;95.62;101483.66;4996032;28;20046;-86
2021/09/08 04:07:12;;;;;;;31.35;21.20;;;;;;;13.54;95.86;101476.88;4997918;28;20061;-87
2021/09/08 04:09:37;;;;;;;30.08;20.95;;;;;;;13.51;95.99;101475.38;4996535;28;20038;-86
2021/09/08 04:12:03;;;;;;;32.78;21.75;;;;;;;13.48;96.50;101475.69;4998321;28;20072;-87
2021/09/08 04:14:28;;;;;;;29.73;20.92;;;;;;;13.46;96.41;101469.63;4981728;28;20729;-86
2021/09/08 04:16:53;;;;;;;29.92;20.20;;;;;;;13.48;96.03;101466.78;4981673;28;20053;-86
2021/09/08 04:19:20;;;;;;;31.17;22.05;;;;;;;13.46;96.14;101464.22;4984096;28;20278;-87
2021/09/08 04:21:47;;;;;;;32.60;21.95;;;;;;;13.45;96.32;101467.13;5000249;28;20443;-86
2021/09/08 04:24:12;;;;;;;33.45;21.90;;;;;;;13.41;96.26;101474.69;5003559;28;20046;-87
2021/09/08 04:26:37;;;;;;;31.00;21.63;;;;;;;13.39;96.30;101468.63;4981580;28;20076;-86
2021/09/08 04:29:03;;;;;;;33.10;22.08;;;;;;;13.39;96.33;101468.63;5000673;28;20034;-87
2021/09/08 04:31:28;;;;;;;34.35;21.42;;;;;;;13.40;96.62;101470.28;4967669;28;20049;-87
2021/09/08 04:33:53;;;;;;;30.05;21.20;;;;;;;13.39;96.54;101470.47;4993120;28;20454;-87
2021/09/08 04:36:19;;;;;;;30.90;20.70;;;;;;;13.38;96.15;101458.84;4995389;28;20053;-86
2021/09/08 04:38:47;;;;;;;33.35;22.50;;;;;;;13.37;96.00;101467.09;5001281;28;20049;-86
2021/09/08 04:41:13;;;;;;;32.53;21.80;;;;;;;13.36;96.00;101462.72;5001026;28;20479;-86
2021/09/08 04:43:39;;;;;;;30.73;21.98;;;;;;;13.34;96.22;101456.66;5001680;28;20045;-87
2021/09/08 04:46:04;;;;;;;34.08;22.00;;;;;;;13.31;96.07;101463.22;5001351;28;20377;-87
2021/09/08 04:48:30;;;;;;;29.73;20.95;;;;;;;13.31;96.29;101466.75;5001434;28;20052;-87
2021/09/08 04:50:55;;;;;;;29.85;21.75;;;;;;;13.34;96.03;101456.66;4983668;28;20096;-86
2021/09/08 04:53:21;;;;;;;31.23;21.77;;;;;;;13.30;95.65;101470.47;4983209;28;20404;-87
2021/09/08 04:55:46;;;;;;;31.20;21.00;;;;;;;13.30;95.89;101462.38;5001760;28;20463;-87
2021/09/08 04:58:11;;;;;;;32.90;22.05;;;;;;;13.28;95.89;101464.38;4982342;28;20133;-86
2021/09/08 05:00:37;;;;;;;30.58;21.13;;;;;;;13.26;95.80;101455.63;5000764;28;20040;-87
2021/09/08 05:03:03;;;;;;;33.20;21.52;;;;;;;13.26;95.62;101454.78;5001029;28;20050;-86
2021/09/08 05:05:28;;;;;;;34.00;21.60;;;;;;;13.22;96.07;101456.94;4998104;28;20045;-87
2021/09/08 05:07:53;;;;;;;38.08;21.48;;;;;;;13.23;96.11;101464.00;4989557;28;20041;-86
2021/09/08 05:10:19;;;;;;;32.10;21.90;;;;;;;13.21;96.26;101462.50;4999975;28;20611;-86
2021/09/08 05:12:44;;;;;;;37.22;22.52;;;;;;;13.19;96.44;101459.13;4999778;28;20606;-86
2021/09/08 05:15:10;;;;;;;32.58;22.23;;;;;;;13.19;96.87;101454.56;5003990;28;20053;-86
2021/09/08 05:17:36;;;;;;;33.25;21.95;;;;;;;13.18;96.61;101452.91;5012232;28;20484;-86
2021/09/08 05:20:06;;;;;;;31.88;21.48;;;;;;;13.18;96.91;101452.91;4982766;28;20041;-86
2021/09/08 05:22:32;;;;;;;34.83;21.73;;;;;;;13.19;96.78;101445.66;4999053;28;20034;-87
2021/09/08 05:24:57;;;;;;;31.95;21.73;;;;;;;13.17;96.48;101456.56;4997848;28;20470;-87
2021/09/08 05:27:23;;;;;;;36.72;22.90;;;;;;;13.18;97.07;101455.59;4997444;28;20053;-88
2021/09/08 05:29:48;;;;;;;30.90;22.23;;;;;;;13.18;97.23;101450.19;4980976;28;20038;-88
2021/09/08 05:32:13;;;;;;;33.08;22.30;;;;;;;13.22;96.98;101448.00;5000282;28;20128;-87
2021/09/08 05:34:39;;;;;;;33.10;23.85;;;;;;;13.23;97.26;101461.31;5002513;28;20468;-87
2021/09/08 05:37:04;;;;;;;34.22;22.73;;;;;;;13.20;97.57;101450.84;5002206;28;20577;-88
2021/09/08 05:39:30;;;;;;;35.30;24.20;;;;;;;13.25;97.55;101453.94;4999153;28;20100;-87
2021/09/08 05:41:55;;;;;;;36.22;24.60;;;;;;;13.30;97.40;101450.75;4998268;28;20411;-86
2021/09/08 05:44:20;;;;;;;32.33;23.75;;;;;;;13.33;97.14;101439.63;4999493;28;20304;-87
2021/09/08 05:46:46;;;;;;;35.05;24.00;;;;;;;13.36;97.46;101443.84;4967131;28;20099;-87
2021/09/08 05:49:12;;;;;;;35.00;22.83;;;;;;;13.38;97.40;101442.69;5014010;28;20034;-88
2021/09/08 05:51:39;;;;;;;34.92;23.70;;;;;;;13.45;97.14;101442.84;4960353;28;20454;-87
2021/09/08 05:54:06;;;;;;;35.53;23.38;;;;;;;13.50;97.52;101438.66;4994911;28;20061;-86
2021/09/08 05:56:32;;;;;;;31.33;22.88;;;;;;;13.58;96.99;101442.34;5000024;28;20149;-87
2021/09/08 05:58:57;;;;;;;32.28;22.73;;;;;;;13.65;96.37;101438.81;4999342;28;20058;-87
2021/09/08 06:01:24;;;;;;;30.67;21.52;;;;;;;13.74;95.77;101442.34;5000091;28;20042;-87
2021/09/08 06:03:49;;;;;;;33.47;20.27;;;;;;;13.82;95.36;101444.22;5000142;28;20048;-87
2021/09/08 06:06:14;;;;;;;31.63;21.40;;;;;;;13.93;94.89;101442.00;4998864;28;20042;-86
2021/09/08 06:08:40;;;;;;;29.83;21.20;;;;;;;14.02;94.80;101445.53;4983952;28;20037;-87
2021/09/08 06:11:05;;;;;;;28.92;19.38;;;;;;;14.11;93.88;101443.66;4999207;28;20129;-88
2021/09/08 06:13:30;;;;;;;28.08;19.40;;;;;;;14.23;93.61;101435.00;4999952;28;20045;-87
2021/09/08 06:15:56;;;;;;;25.83;17.70;;;;;;;14.35;93.12;101437.34;4974346;28;20065;-87
2021/09/08 06:18:21;;;;;;;25.83;17.73;;;;;;;14.46;92.06;101436.97;5000210;28;20048;-86
2021/09/08 06:20:46;;;;;;;24.17;18.10;;;;;;;14.58;92.27;101438.31;4964622;28;20471;-87
2021/09/08 06:23:12;;;;;;;26.75;17.85;;;;;;;14.68;91.70;101429.19;4983069;28;20778;-87
2021/09/08 06:25:38;;;;;;;24.85;17.83;;;;;;;14.77;91.83;101438.94;5011868;28;20041;-87
2021/09/08 06:28:03;;;;;;;28.13;18.60;;;;;;;14.85;91.74;101426.22;4999153;28;20061;-87
2021/09/08 06:30:29;;;;;;;25.02;17.30;;;;;;;14.95;90.62;101428.69;5000600;28;20042;-87
2021/09/08 06:32:54;;;;;;;27.65;18.80;;;;;;;15.00;91.66;101433.56;4997372;28;20104;-87
2021/09/08 06:35:19;;;;;;;25.85;17.83;;;;;;;15.11;90.73;101434.00;4981939;28;20050;-87
2021/09/08 06:37:45;;;;;;;24.08;17.45;;;;;;;15.21;90.51;101424.81;4984739;28;20046;-87
2021/09/08 06:40:11;;;;;;;26.55;16.75;;;;;;;15.33;89.60;101428.78;5005184;28;20061;-86
2021/09/08 06:42:37;;;;;;;25.58;16.75;;;;;;;15.41;89.65;101426.00;5000749;28;20068;-92
2021/09/08 06:45:03;;;;;;;21.27;15.48;;;;;;;15.52;89.86;101425.59;5006390;28;20058;-86
2021/09/08 06:47:28;;;;;;;24.77;16.90;;;;;;;15.65;89.25;101418.72;5006035;28;20045;-86
2021/09/08 06:49:54;;;;;;;25.35;16.77;;;;;;;15.77;88.32;101414.59;5005646;28;20041;-87
2021/09/08 06:52:20;;;;;;;22.85;15.48;;;;;;;15.87;88.24;101417.88;4974253;28;20404;-87
2021/09/08 06:54:46;;;;;;;21.25;15.63;;;;;;;16.00;87.34;101414.56;4969329;28;20042;-88
2021/09/08 06:57:13;;;;;;;22.50;15.07;;;;;;;16.15;86.42;101406.44;4993893;28;20125;-88
2021/09/08 06:59:41;;;;;;;23.80;15.23;;;;;;;16.24;85.39;101406.16;4986745;28;20042;-86
2021/09/08 07:02:07;;;;;;;19.70;14.18;;;;;;;16.36;85.03;101409.22;5000934;28;20030;-86
2021/09/08 07:04:33;;;;;;;20.10;13.52;;;;;;;16.45;83.87;101402.69;5000412;28;20397;-88
2021/09/08 07:06:58;;;;;;;19.48;14.32;;;;;;;16.57;83.75;101407.63;5006950;28;20034;-86
2021/09/08 07:09:24;;;;;;;19.08;13.98;;;;;;;16.64;83.97;101403.16;4991519;28;20504;-88
2021/09/08 07:11:49;;;;;;;19.55;13.43;;;;;;;16.74;83.05;101405.53;5003719;28;20970;-85
2021/09/08 07:14:15;;;;;;;20.33;14.57;;;;;;;16.83;83.12;101410.72;4999726;28;20382;-86
2021/09/08 07:16:40;;;;;;;18.75;13.57;;;;;;;16.92;82.58;101408.72;4998899;28;20038;-86
2021/09/08 07:19:06;;;;;;;22.70;14.25;;;;;;;16.99;82.27;101401.50;5001181;28;20046;-86
2021/09/08 07:21:31;;;;;;;21.20;14.35;;;;;;;17.06;82.35;101406.97;5021425;28;20058;-86
2021/09/08 07:23:56;;;;;;;20.92;14.40;;;;;;;17.15;81.89;101405.84;4991444;28;20423;-86
2021/09/08 07:26:22;;;;;;;18.52;14.27;;;;;;;17.24;81.35;101401.97;5009300;28;20045;-85
2021/09/08 07:28:47;;;;;;;22.40;14.52;;;;;;;17.35;81.09;101403.34;5006174;28;20285;-86
2021/09/08 07:31:13;;;;;;;21.73;14.45;;;;;;;17.50;81.82;101400.56;5006886;28;20152;-86
2021/09/08 07:33:38;;;;;;;18.60;14.27;;;;;;;17.57;80.69;101404.16;4989684;28;20050;-87
2021/09/08 07:36:04;;;;;;;20.08;13.88;;;;;;;17.66;81.00;101394.00;4996785;28;20252;-85
2021/09/08 07:38:29;;;;;;;19.33;13.63;;;;;;;17.72;80.27;101396.78;5006649;28;20050;-85
2021/09/08 07:40:55;;;;;;;18.85;13.82;;;;;;;17.81;80.08;101395.63;5006484;28;20493;-89
2021/09/08 07:43:21;;;;;;;19.58;13.45;;;;;;;17.84;79.18;101397.13;5007400;28;20501;-88
2021/09/08 07:45:47;;;;;;;19.75;13.50;;;;;;;17.94;79.59;101402.19;4997966;28;20034;-87
2021/09/08 07:48:13;;;;;;;18.17;12.80;;;;;;;18.03;78.96;101390.13;4991091;28;20044;-87
2021/09/08 07:50:38;;;;;;;18.17;13.70;;;;;;;18.17;77.82;101399.19;4994435;28;20362;-86
2021/09/08 07:53:08;;;;;;;17.20;12.63;;;;;;;18.27;77.55;101400.53;4989277;28;20046;-86
2021/09/08 07:55:35;;;;;;;17.88;13.05;;;;;;;18.31;76.72;101398.25;4992054;28;20050;-86
2021/09/08 07:58:00;;;;;;;16.95;12.93;;;;;;;18.37;77.22;101393.88;5004497;28;20056;-90
2021/09/08 08:00:25;;;;;;;20.42;12.65;;;;;;;18.53;77.48;101396.28;5011631;28;20034;-86
2021/09/08 08:02:51;;;;;;;23.00;12.18;;;;;;;18.62;76.33;101389.63;5008967;28;20096;-88
2021/09/08 08:05:18;;;;;;;16.98;12.15;;;;;;;18.74;77.30;101386.34;4993331;28;20043;-86
2021/09/08 08:07:45;;;;;;;18.30;12.52;;;;;;;18.83;75.35;101385.94;4992657;28;20372;-88
2021/09/08 08:10:12;;;;;;;18.27;12.70;;;;;;;18.91;74.73;101376.78;5009323;28;20057;-85
2021/09/08 08:12:37;;;;;;;20.75;13.65;;;;;;;19.07;75.53;101381.81;4990594;28;20034;-86
2021/09/08 08:15:04;;;;;;;16.95;12.52;;;;;;;19.15;74.46;101378.91;4990789;28;20041;-86
2021/09/08 08:17:30;;;;;;;18.83;12.07;;;;;;;19.25;74.50;101383.09;4993963;28;20073;-89
2021/09/08 08:19:55;;;;;;;17.42;12.27;;;;;;;19.39;74.92;101376.63;5010886;28;20069;-85
2021/09/08 08:22:21;;;;;;;19.70;12.35;;;;;;;19.45;74.16;101366.78;5009362;28;20042;-87
2021/09/08 08:24:46;;;;;;;17.15;11.70;;;;;;;19.58;73.36;101366.81;4996024;28;20448;-86
2021/09/08 08:27:12;;;;;;;16.70;11.48;;;;;;;19.70;73.07;101369.75;4990072;28;20070;-88
2021/09/08 08:29:37;;;;;;;18.67;12.38;;;;;;;19.77;71.90;101371.44;4989303;28;20485;-86
2021/09/08 08:32:03;;;;;;;15.85;11.35;;;;;;;19.89;72.75;101374.34;4990659;28;20110;-86
2021/09/08 08:34:29;;;;;;;17.30;12.77;;;;;;;19.94;71.49;101370.97;4989924;28;20042;-89
2021/09/08 08:36:55;;;;;;;19.27;11.55;;;;;;;20.01;70.71;101369.94;4990387;28;20038;-86
2021/09/08 08:39:21;;;;;;;17.17;11.73;;;;;;;20.12;71.61;101370.34;4992490;28;20077;-86
2021/09/08 08:41:47;;;;;;;17.15;12.32;;;;;;;20.25;71.21;101362.97;4988853;28;20042;-88
2021/09/08 08:44:15;;;;;;;15.63;11.32;;;;;;;20.37;71.00;101359.53;4989275;28;20046;-88
2021/09/08 08:46:42;;;;;;;15.60;11.43;;;;;;;20.41;69.49;101367.09;4987302;28;20048;-90
2021/09/08 08:49:08;;;;;;;16.35;11.73;;;;;;;20.52;69.75;101368.31;4990240;28;20322;-86
2021/09/08 08:51:33;;;;;;;17.00;11.88;;;;;;;20.60;68.24;101359.94;4988956;28;20621;-85
2021/09/08 08:53:59;;;;;;;15.93;10.75;;;;;;;20.68;69.95;101354.19;4990204;28;20193;-86
2021/09/08 08:56:24;;;;;;;17.77;12.05;;;;;;;20.84;69.09;101357.50;4990409;28;20053;-85
2021/09/08 08:58:52;;;;;;;15.65;10.48;;;;;;;20.95;70.09;101354.06;4972158;28;20050;-91
2021/09/08 09:01:17;;;;;;;16.25;11.68;;;;;;;21.07;69.03;101355.03;4990105;28;20043;-85
2021/09/08 09:04:01;;;;;;;14.10;10.73;;;;;;;21.20;68.12;101365.00;4987042;28;20049;-88
2021/09/08 09:06:27;;;;;;;16.70;10.70;;;;;;;21.26;67.85;101353.22;4988438;28;20046;-88
2021/09/08 09:09:05;;;;;;;14.15;10.23;;;;;;;21.38;67.85;101356.94;4987576;28;20038;-86
2021/09/08 09:11:31;;;;;;;15.35;10.57;;;;;;;21.57;67.92;101354.25;4989125;28;20590;-88
2021/09/08 09:13:56;;;;;;;17.23;11.30;;;;;;;21.64;66.77;101357.78;4987575;28;20137;-86
2021/09/08 09:16:28;;;;;;;14.48;10.98;;;;;;;21.71;66.44;101350.34;4987586;28;20080;-91
2021/09/08 09:18:54;;;;;;;14.27;10.45;;;;;;;21.85;66.00;101345.59;4987942;28;20042;-86
2021/09/08 09:21:23;;;;;;;13.98;10.38;;;;;;;21.96;65.14;101349.47;4972908;28;20050;-86
2021/09/08 09:23:59;;;;;;;14.85;10.13;;;;;;;21.99;64.13;101347.13;4988515;28;20523;-86
2021/09/08 09:26:33;;;;;;;14.15;9.52;;;;;;;22.11;64.33;101332.72;4989295;28;20065;-92
2021/09/08 09:29:16;;;;;;;13.25;9.80;;;;;;;22.22;64.06;101338.28;4991622;28;20097;-85
2021/09/08 09:31:53;;;;;;;14.80;10.43;;;;;;;22.28;63.66;101333.81;4994115;28;20053;-87
2021/09/08 09:34:20;;;;;;;13.90;10.38;;;;;;;22.29;64.58;101338.19;4995481;28;20042;-87
2021/09/08 09:36:46;;;;;;;13.65;9.60;;;;;;;22.46;64.00;101336.50;4974358;28;20268;-86
2021/09/08 09:39:22;;;;;;;13.00;9.15;;;;;;;22.59;63.56;101332.78;4988034;28;20461;-85
2021/09/08 09:41:48;;;;;;;14.82;10.20;;;;;;;22.60;62.89;101331.69;4972908;28;20054;-87
2021/09/08 09:44:15;;;;;;;13.27;9.40;;;;;;;22.58;63.76;101328.34;4988003;28;20155;-85
2021/09/08 09:46:46;;;;;;;15.35;10.15;;;;;;;22.62;63.15;101323.28;4988742;28;20117;-86
2021/09/08 09:49:13;;;;;;;16.42;10.60;;;;;;;22.70;64.39;101323.78;4990519;28;20053;-86
2021/09/08 09:51:40;;;;;;;15.27;9.77;;;;;;;22.77;62.79;101323.69;4986482;28;20034;-85
2021/09/08 09:54:05;;;;;;;13.80;10.25;;;;;;;22.91;62.78;101324.34;4985138;28;20450;-85
2021/09/08 09:56:31;;;;;;;13.60;9.50;;;;;;;22.93;62.98;101319.44;4988016;28;20380;-85
2021/09/08 09:58:56;;;;;;;13.13;9.70;;;;;;;23.08;62.63;101322.63;4986857;28;20039;-86
2021/09/08 10:01:22;;;;;;;12.35;9.32;;;;;;;23.39;63.38;101304.19;4987921;28;20042;-85
2021/09/08 10:03:47;;;;;;;13.15;9.65;;;;;;;23.41;61.79;101304.81;4986725;28;20038;-89
2021/09/08 10:06:14;;;;;;;11.35;8.43;;;;;;;23.46;62.29;101299.47;4970270;28;20038;-85
2021/09/08 10:08:49;;;;;;;13.40;9.02;;;;;;;23.59;61.62;101310.19;4985762;28;20038;-86
2021/09/08 10:11:23;;;;;;;15.77;9.07;;;;;;;23.76;61.27;101304.81;4971069;28;20073;-86
2021/09/08 10:13:53;;;;;;;12.77;9.15;;;;;;;23.78;61.50;101294.47;4984087;28;20053;-91
2021/09/08 10:16:21;;;;;;;13.13;9.13;;;;;;;23.86;61.21;101293.28;4985870;28;20050;-86
2021/09/08 10:18:48;;;;;;;10.88;8.63;;;;;;;23.99;59.85;101290.25;4986567;28;20062;-85
2021/09/08 10:21:15;;;;;;;11.15;9.07;;;;;;;24.13;59.43;101290.00;4986025;28;20460;-85
2021/09/08 10:24:02;;;;;;;11.95;8.40;;;;;;;24.23;60.70;101285.56;4985473;28;20572;-89
2021/09/08 10:26:30;;;;;;;10.80;8.50;;;;;;;24.33;60.33;101282.19;4987571;28;20042;-86
2021/09/08 10:29:07;;;;;;;11.80;8.20;;;;;;;24.47;60.01;101275.38;4984705;28;20045;-86
2021/09/08 10:31:43;;;;;;;12.45;8.90;;;;;;;24.56;58.96;101275.81;4987636;28;20046;-88
2021/09/08 10:34:11;;;;;;;11.18;8.50;;;;;;;24.49;58.08;101267.72;4970389;28;20092;-86
2021/09/08 10:36:38;;;;;;;11.43;9.27;;;;;;;24.59;58.79;101267.06;4986442;28;20122;-86
2021/09/08 10:39:15;;;;;;;11.43;8.68;;;;;;;24.70;59.51;101265.34;4986813;28;20050;-86
2021/09/08 10:41:47;;;;;;;11.07;8.35;;;;;;;24.73;58.68;101267.59;4986717;28;20061;-86
2021/09/08 10:44:17;;;;;;;10.35;8.43;;;;;;;24.75;58.89;101268.19;4987478;28;20038;-88
2021/09/08 10:47:02;;;;;;;10.23;8.13;;;;;;;24.82;58.13;101260.63;5006023;28;20037;-86
2021/09/08 10:49:39;;;;;;;10.68;8.50;;;;;;;24.84;58.92;101263.13;4991062;28;20040;-88
2021/09/08 10:52:11;;;;;;;12.93;8.23;;;;;;;24.99;58.27;101255.16;5006151;28;20496;-86
2021/09/08 10:54:54;;;;;;;11.45;9.00;;;;;;;25.13;56.66;101255.66;5004088;28;20045;-86
2021/09/08 10:57:38;;;;;;;10.02;7.40;;;;;;;25.25;57.82;101252.84;5005913;28;20052;-87
2021/09/08 11:00:05;;;;;;;9.57;7.47;;;;;;;25.33;53.61;101252.44;5005534;28;20509;-91
2021/09/08 11:02:31;;;;;;;11.93;7.68;;;;;;;25.24;54.84;101246.53;4989367;28;20180;-84
2021/09/08 11:04:59;;;;;;;9.75;7.60;;;;;;;25.30;55.12;101237.28;4988779;28;20121;-86
2021/09/08 11:07:25;;;;;;;13.18;8.13;;;;;;;25.36;54.49;101239.03;5007741;28;20045;-86